SBOSBO STR / EDDS
Speedbird OnlineSpeedbird Online STR / EDDS

Stuttgart Airport
23:29 16.3°C

Location Stuttgart, Germany
Latitude: 48.689899444599995
Longitude: 9.22196006775
Local Time 23:29 on 20 May 2024
UTC +2 hours (Europe/Berlin)
Currency £1 equals EUR 1.17
METAR EDDS 202050Z AUTO 30002KT CAVOK 17/12 Q1008
TAF TAF EDDS 201700Z 2018/2118 31004KT CAVOK TEMPO 2107/2118 25006KT RA BKN014 PROB30 TEMPO 2109/2114 3500 +TSRA BKN008 BKN015CB
Weather As Of 20 May 2024 23:29
Description Clear sky
Wind 4 km/h from North-West (300°)
Cloud Cover 0%
Precipitation Rain: none, Snow: none
Sunrise 05:35
Sunset 21:03
NOTAM 23 active NOTAM
Rotations During the last 90 days there were
161 flights from LHR
166 flights to LHR
Web Airport Website | Wikipedia
Codes IATA: STR
ICAO: EDDS
Altitude 389 Meter / 1276 Feet
Distance 719 KM / 447 Miles
from London.
Runways
RunwayLength (m)Surface
073345Concrete
253345Concrete
Radio
TypeDescriptionFrequency
APPLangen Radar Approach119.2
ATISATIS126.13
CLDCLNC DEL121.915
DIRStuttgart Director119.85
GNDStuttgart Ground118.605
INFOLANGEN INFO128.95
MISCDEICING121.63
RDRLANGEN RADAR119.2
RMPAPRON121.7
TWRTWR118.805
Live ATC



Support Speedbird Online

© 2017-2024 Speedbird Online